.
WxDataArchive / Data Records for 2007-06-27
2007-06-26 June 2007 2007-06-28

Data Records for Wednesday, 27 June 2007

Time	Temp	Chill	HIndex	Humid	Dewpt	 Wind 	HiWind	WindDir	Rain 	Barom 
-----	----	-----	------	-----	-----	------	------	-------	-----	----- 
00:00	70.1	70.1	70.1	92	67.7	0	0	---	0.00	30.068 
00:05	70.1	70.1	70.1	92	67.7	0	0	---	0.00	30.067 
00:10	70.1	70.1	70.1	92	67.7	0	0	---	0.00	30.070 
00:15	70.1	70.1	70.1	92	67.7	0	0	---	0.00	30.068 
00:20	70.1	70.1	70.1	92	67.7	0	0	---	0.00	30.063 
00:25	69.9	69.9	69.9	93	67.8	0	0	---	0.00	30.064 
00:30	69.9	69.9	69.9	93	67.8	0	0	---	0.00	30.063 
00:35	69.9	69.9	69.9	93	67.8	0	0	---	0.00	30.059 
00:40	69.9	69.9	69.9	93	67.8	0	0	---	0.00	30.057 
00:45	69.9	69.9	69.9	93	67.8	0	1	248	0.00	30.056 
00:50	70.1	70.1	70.1	92	67.7	0	0	---	0.00	30.056 
00:55	70.1	70.1	70.1	92	67.7	0	1	248	0.00	30.056 
01:00	70.1	70.1	70.1	92	67.7	0	1	248	0.00	30.056 
01:05	70.1	70.1	70.1	92	67.7	0	1	248	0.00	30.054 
01:10	70.1	70.1	70.1	91	67.3	0	0	---	0.00	30.055 
01:15	70.1	70.1	70.1	91	67.3	0	0	---	0.00	30.055 
01:20	70.1	70.1	70.1	91	67.3	0	1	248	0.00	30.055 
01:25	70.1	70.1	70.1	91	67.3	0	0	---	0.00	30.054 
01:30	70.1	70.1	70.1	90	67.0	0	0	---	0.00	30.053 
01:35	70.1	70.1	70.1	90	67.0	0	1	248	0.00	30.051 
01:40	70.3	70.3	70.3	90	67.2	0	1	248	0.00	30.055 
01:45	70.3	70.3	70.3	90	67.2	0	1	248	0.00	30.055 
01:50	70.3	70.3	70.3	90	67.2	0	0	---	0.00	30.055 
01:55	70.3	70.3	70.3	90	67.2	0	0	---	0.00	30.055 
02:00	70.1	70.1	70.1	90	67.0	0	0	---	0.00	30.052 
02:05	70.1	70.1	70.1	90	67.0	0	0	---	0.00	30.050 
02:10	69.9	69.9	69.9	91	67.1	0	0	---	0.00	30.054 
02:15	69.8	69.8	69.8	91	67.0	0	0	---	0.00	30.052 
02:20	69.6	69.6	69.6	91	66.8	0	0	---	0.00	30.052 
02:25	69.4	69.4	69.4	91	66.7	0	0	---	0.00	30.049 
02:30	69.3	69.3	69.3	92	66.9	0	0	---	0.00	30.050 
02:35	69.1	69.1	69.1	92	66.7	0	0	---	0.00	30.050 
02:40	69.1	69.1	69.1	92	66.7	0	0	---	0.00	30.052 
02:45	68.9	68.9	68.9	93	66.8	0	0	---	0.00	30.053 
02:50	68.9	68.9	68.9	93	66.8	0	0	---	0.00	30.046 
02:55	68.8	68.8	68.8	93	66.7	0	0	---	0.00	30.042 
03:00	68.6	68.6	68.6	94	66.8	0	0	---	0.00	30.041 
03:05	68.8	68.8	68.8	94	67.0	0	1	248	0.00	30.041 
03:10	68.8	68.8	68.8	94	67.0	0	1	248	0.00	30.041 
03:15	68.9	68.9	68.9	94	67.1	0	1	248	0.00	30.042 
03:20	68.9	68.9	68.9	94	67.1	0	0	---	0.00	30.046 
03:25	68.9	68.9	68.9	94	67.1	0	1	248	0.00	30.049 
03:30	68.9	68.9	68.9	94	67.1	0	1	248	0.00	30.052 
03:35	68.9	68.9	68.9	94	67.1	0	1	248	0.00	30.048 
03:40	68.9	68.9	68.9	94	67.1	0	1	248	0.00	30.049 
03:45	68.9	68.9	68.9	94	67.1	0	1	248	0.00	30.054 
03:50	69.1	69.1	69.1	94	67.3	0	2	248	0.00	30.050 
03:55	69.3	69.3	69.3	94	67.5	0	1	248	0.00	30.048 
04:00	69.3	69.3	69.3	94	67.5	0	1	248	0.00	30.047 
04:05	69.4	69.4	69.4	94	67.6	0	2	248	0.00	30.047 
04:10	69.4	69.4	69.4	94	67.6	0	2	248	0.00	30.045 
04:15	69.6	69.6	69.6	93	67.5	0	1	248	0.00	30.048 
04:20	69.9	69.9	69.9	93	67.8	1	2	248	0.00	30.046 
04:25	70.1	70.1	70.1	92	67.7	0	1	248	0.00	30.042 
04:30	70.1	70.1	70.1	92	67.7	0	3	248	0.00	30.039 
04:35	70.1	70.1	70.1	92	67.7	0	1	248	0.00	30.039 
04:40	70.1	70.1	70.1	92	67.7	1	2	248	0.00	30.038 
04:45	70.3	70.3	70.3	92	67.9	1	3	248	0.00	30.037 
04:50	70.3	70.3	70.3	92	67.9	0	3	248	0.00	30.036 
04:55	70.3	70.3	70.3	92	67.9	0	2	248	0.00	30.037 
05:00	70.3	70.3	70.3	92	67.9	0	2	248	0.00	30.032 
05:05	70.3	70.3	70.3	92	67.9	0	2	248	0.00	30.036 
05:10	70.3	70.3	70.3	92	67.9	1	2	248	0.00	30.042 
05:15	70.3	70.3	70.3	92	67.9	0	2	248	0.00	30.044 
05:20	70.3	70.3	70.3	92	67.9	0	2	248	0.00	30.045 
05:25	70.4	70.4	70.4	91	67.6	1	2	248	0.00	30.044 
05:30	70.4	70.4	70.4	91	67.6	0	2	248	0.00	30.044 
05:35	70.6	70.6	70.6	91	67.8	0	2	248	0.00	30.044 
05:40	70.8	70.8	70.8	90	67.7	1	3	270	0.00	30.042 
05:45	70.8	70.8	70.8	90	67.7	1	4	270	0.00	30.042 
05:50	70.9	70.9	70.9	90	67.8	1	3	248	0.00	30.040 
05:55	70.9	70.9	70.9	90	67.8	1	3	248	0.00	30.037 
06:00	70.9	70.9	70.9	89	67.5	0	2	248	0.00	30.039 
06:05	70.9	70.9	70.9	89	67.5	1	4	248	0.00	30.047 
06:10	71.1	71.1	71.1	89	67.7	0	2	248	0.00	30.044 
06:15	71.1	71.1	71.1	89	67.7	1	4	248	0.00	30.043 
06:20	71.1	71.1	71.1	89	67.7	1	4	248	0.00	30.042 
06:25	71.1	71.1	71.1	89	67.7	1	4	248	0.00	30.044 
06:30	71.3	71.3	71.3	88	67.6	1	4	248	0.00	30.045 
06:35	71.3	71.3	71.3	88	67.6	0	2	248	0.00	30.048 
06:40	71.5	71.5	71.5	88	67.7	1	4	248	0.00	30.047 
06:45	71.5	71.5	71.5	88	67.7	1	3	248	0.00	30.047 
06:50	71.5	71.5	71.5	88	67.7	1	3	248	0.00	30.044 
06:55	71.5	71.5	71.5	88	67.7	1	3	270	0.00	30.037 
07:00	71.3	71.3	71.3	88	67.6	0	2	292	0.00	30.039 
07:05	71.1	71.1	71.1	88	67.4	1	2	292	0.00	30.042 
07:10	71.3	71.3	71.3	88	67.6	0	1	248	0.00	30.040 
07:15	71.3	71.3	71.3	88	67.6	1	3	248	0.00	30.039 
07:20	71.5	71.5	71.5	88	67.7	0	2	248	0.00	30.035 
07:25	71.5	71.5	71.5	86	67.1	1	4	270	0.00	30.035 
07:30	71.6	71.6	71.6	86	67.2	1	3	270	0.00	30.036 
07:35	71.8	71.8	71.8	86	67.4	1	2	270	0.00	30.036 
07:40	72.3	72.3	72.3	85	67.5	1	3	270	0.00	30.035 
07:45	73.0	73.0	73.0	84	67.9	1	3	225	0.00	30.037 
07:50	73.7	73.7	73.7	82	67.9	2	3	225	0.00	30.035 
07:55	74.2	74.2	74.2	79	67.3	2	7	248	0.00	30.041 
08:00	74.7	74.7	74.7	77	67.0	2	5	248	0.00	30.045 
08:05	75.1	75.1	76.2	76	67.0	2	4	248	0.00	30.048 
08:10	75.4	75.4	76.6	75	66.9	3	4	248	0.00	30.047 
08:15	76.0	76.0	77.4	74	67.1	2	4	248	0.00	30.046 
08:20	76.1	76.1	77.5	74	67.2	2	5	270	0.00	30.046 
08:25	76.7	76.7	78.3	75	68.2	1	3	225	0.00	30.040 
08:30	77.2	77.2	79.0	73	67.9	1	4	225	0.00	30.043 
08:35	77.4	77.4	79.3	71	67.2	2	4	270	0.00	30.039 
08:40	77.6	77.6	79.5	69	66.6	2	5	248	0.00	30.044 
08:45	77.9	77.9	79.9	71	67.7	1	4	202	0.00	30.044 
08:50	78.3	78.3	80.3	68	66.8	2	5	248	0.00	30.043 
08:55	78.6	78.6	80.7	68	67.1	2	4	270	0.00	30.043 
09:00	79.2	79.2	81.5	67	67.3	2	5	248	0.00	30.043 
09:05	79.9	79.9	82.5	67	67.9	1	2	248	0.00	30.038 
09:10	80.1	80.1	82.4	64	66.8	2	6	248	0.00	30.041 
09:15	80.1	80.1	82.4	64	66.8	2	4	270	0.00	30.043 
09:20	80.3	80.3	82.7	64	67.0	2	6	270	0.00	30.042 
09:25	80.7	80.7	83.2	64	67.4	2	4	248	0.00	30.043 
09:30	80.9	80.9	83.4	63	67.1	2	6	270	0.00	30.039 
09:35	81.1	81.1	83.6	63	67.3	2	6	248	0.00	30.033 
09:40	81.2	81.2	83.6	62	66.9	2	4	248	0.00	30.035 
09:45	81.6	81.6	84.2	62	67.3	2	4	248	0.00	30.031 
09:50	81.8	81.8	84.5	62	67.5	2	4	270	0.00	30.030 
09:55	82.2	82.2	85.1	62	67.9	2	6	270	0.00	30.028 
10:00	82.2	82.2	84.5	59	66.4	3	6	270	0.00	30.029 
10:05	82.0	82.0	84.4	60	66.7	2	5	270	0.00	30.031 
10:10	82.6	82.6	85.5	61	67.8	1	5	270	0.00	30.033 
10:15	82.8	82.8	85.6	60	67.5	2	5	248	0.00	30.036 
10:20	82.8	82.8	85.2	58	66.5	3	6	248	0.00	30.038 
10:25	82.8	82.8	85.4	59	67.0	3	5	270	0.00	30.040 
10:30	83.2	83.2	86.2	60	67.8	2	4	270	0.00	30.036 
10:35	83.4	83.4	86.3	59	67.5	3	6	248	0.00	30.035 
10:40	83.6	83.6	86.9	60	68.2	2	4	270	0.00	30.040 
10:45	84.0	84.0	87.0	58	67.6	2	4	248	0.00	30.040 
10:50	84.3	84.3	88.0	60	68.9	1	5	270	0.00	30.038 
10:55	84.7	84.7	88.4	59	68.8	2	6	270	0.00	30.033 
11:00	84.9	84.9	88.5	58	68.4	2	7	248	0.00	30.029 
11:05	84.7	84.7	87.6	56	67.2	2	6	270	0.00	30.028 
11:10	84.7	84.7	87.9	57	67.7	2	6	270	0.00	30.027 
11:15	84.7	84.7	87.6	56	67.2	3	7	270	0.00	30.028 
11:20	84.7	84.7	88.1	58	68.3	3	7	270	0.00	30.025 
11:25	84.9	84.9	88.5	58	68.4	2	6	248	0.00	30.021 
11:30	85.1	85.1	87.9	55	67.1	2	3	248	0.00	30.020 
11:35	85.3	85.3	88.8	57	68.3	2	6	270	0.00	30.021 
11:40	85.3	85.3	88.8	57	68.3	1	3	270	0.00	30.020 
11:45	85.5	85.5	89.5	58	69.0	2	5	248	0.00	30.020 
11:50	85.7	85.7	89.9	58	69.2	1	3	248	0.00	30.018 
11:55	85.9	85.9	89.6	56	68.3	2	5	248	0.00	30.019 
12:00	85.9	85.9	89.6	56	68.3	2	4	270	0.00	30.017 
12:05	85.7	85.7	90.2	59	69.7	2	6	248	0.00	30.017 
12:10	85.9	85.9	89.6	56	68.3	2	7	248	0.00	30.012 
12:15	86.3	86.3	89.9	55	68.2	2	5	270	0.00	30.011 
12:20	86.5	86.5	90.6	56	68.9	3	7	270	0.00	30.009 
12:25	87.0	87.0	92.3	58	70.4	1	4	248	0.00	30.010 
12:30	87.2	87.2	91.5	55	69.0	2	7	248	0.00	30.009 
12:35	86.1	86.1	89.9	56	68.5	2	6	270	0.00	30.010 
12:40	85.9	85.9	89.9	57	68.9	2	5	270	0.00	30.010 
12:45	85.5	85.5	89.5	58	69.0	2	4	270	0.00	30.010 
12:50	85.7	85.7	90.5	60	70.2	1	3	248	0.00	30.010 
12:55	86.7	86.7	92.1	59	70.6	2	5	248	0.00	30.009 
13:00	87.6	87.6	91.8	54	68.9	2	6	270	0.00	30.007 
13:05	87.2	87.2	91.9	56	69.6	3	6	270	0.00	30.003 
13:10	87.6	87.6	91.8	54	68.9	2	5	248	0.00	30.001 
13:15	88.0	88.0	92.6	54	69.2	2	5	248	0.00	29.993 
13:20	88.2	88.2	92.9	54	69.4	2	4	270	0.00	29.991 
13:25	87.8	87.8	92.6	55	69.6	2	4	270	0.00	29.987 
13:30	88.0	88.0	93.4	56	70.3	1	3	270	0.00	29.984 
13:35	88.2	88.2	93.4	55	70.0	3	5	248	0.00	29.984 
13:40	87.8	87.8	92.6	55	69.6	2	4	248	0.00	29.978 
13:45	87.8	87.8	92.2	54	69.0	2	5	270	0.00	29.977 
13:50	87.8	87.8	92.2	54	69.0	2	5	270	0.00	29.976 
13:55	87.6	87.6	92.6	56	69.9	2	6	270	0.00	29.973 
14:00	88.0	88.0	92.6	54	69.2	2	4	292	0.00	29.972 
14:05	87.4	87.4	91.5	54	68.7	2	5	292	0.00	29.971 
14:10	86.5	86.5	91.0	57	69.4	2	4	270	0.00	29.968 
14:15	87.0	87.0	91.9	57	69.9	2	5	248	0.00	29.964 
14:20	87.4	87.4	92.2	56	69.7	2	10	270	0.00	29.964 
14:25	87.4	87.4	91.9	55	69.2	3	6	270	0.00	29.963 
14:30	87.2	87.2	91.5	55	69.0	2	4	248	0.00	29.962 
14:35	87.4	87.4	92.2	56	69.7	2	5	270	0.00	29.962 
14:40	87.6	87.6	93.0	57	70.4	2	5	248	0.00	29.957 
14:45	88.0	88.0	93.0	55	69.8	3	9	248	0.00	29.958 
14:50	88.8	88.8	93.7	53	69.4	2	9	248	0.00	29.950 
14:55	88.8	88.8	93.2	52	68.9	3	6	270	0.00	29.949 
15:00	88.4	88.4	92.5	52	68.5	2	5	270	0.00	29.948 
15:05	88.0	88.0	91.8	52	68.1	2	6	270	0.00	29.947 
15:10	88.0	88.0	92.2	53	68.7	2	5	270	0.00	29.945 
15:15	88.0	88.0	92.6	54	69.2	2	5	270	0.00	29.943 
15:20	87.6	87.6	92.2	55	69.4	2	5	270	0.00	29.940 
15:25	87.4	87.4	91.9	55	69.2	3	6	270	0.00	29.940 
15:30	87.4	87.4	91.9	55	69.2	2	5	270	0.00	29.939 
15:35	87.0	87.0	89.1	49	65.5	3	11	248	0.00	29.946 
15:40	85.9	85.9	86.7	46	62.7	4	11	270	0.00	29.952 
15:45	85.9	85.9	86.9	47	63.3	4	10	270	0.00	29.959 
15:50	85.1	85.1	86.1	48	63.2	4	9	270	0.00	29.962 
15:55	85.1	85.1	86.4	49	63.8	3	7	270	0.00	29.963 
16:00	84.5	84.5	86.0	51	64.4	3	11	248	0.00	29.958 
16:05	83.6	83.6	85.5	54	65.2	3	6	270	0.00	29.952 
16:10	83.4	83.4	85.2	54	65.0	3	6	248	0.00	29.955 
16:15	83.6	83.6	85.9	56	66.2	2	7	248	0.00	29.950 
16:20	83.6	83.6	86.1	57	66.7	2	6	248	0.00	29.939 
16:25	83.6	83.6	86.6	59	67.7	1	3	270	0.00	29.933 
16:30	83.6	83.6	86.9	60	68.2	1	5	292	0.00	29.935 
16:35	83.4	83.4	86.3	59	67.5	2	4	270	0.00	29.945 
16:40	83.4	83.4	86.3	59	67.5	2	5	270	0.00	29.948 
16:45	83.0	83.0	86.1	61	68.1	2	5	248	0.00	29.950 
16:50	82.6	82.6	85.7	62	68.2	1	5	248	0.00	29.948 
16:55	82.4	82.4	85.4	62	68.0	2	5	248	0.00	29.945 
17:00	82.2	82.2	85.3	63	68.3	2	5	270	0.00	29.950 
17:05	82.2	82.2	85.5	64	68.8	2	4	270	0.00	29.948 
17:10	82.0	82.0	85.4	65	69.0	1	3	270	0.00	29.949 
17:15	82.0	82.0	85.4	65	69.0	1	3	270	0.00	29.949 
17:20	82.0	82.0	85.4	65	69.0	1	2	248	0.00	29.950 
17:25	81.8	81.8	85.3	66	69.3	1	2	248	0.00	29.960 
17:30	79.9	79.9	81.7	60	64.7	2	12	315	0.00	29.964 
17:35	78.3	78.3	80.1	62	64.2	1	3	292	0.00	29.964 
17:40	77.6	77.6	79.4	64	64.4	0	2	292	0.00	29.955 
17:45	77.2	77.2	79.0	66	64.9	0	2	315	0.00	29.954 
17:50	77.2	77.2	79.0	67	65.4	0	0	---	0.00	29.953 
17:55	77.2	77.2	79.0	67	65.4	0	1	315	0.00	29.953 
18:00	77.2	77.2	79.0	67	65.4	0	1	315	0.00	29.953 
18:05	77.4	77.4	79.2	67	65.6	0	1	315	0.00	29.951 
18:10	77.6	77.6	79.5	67	65.8	0	1	315	0.00	29.948 
18:15	77.7	77.7	79.6	66	65.4	0	2	315	0.00	29.943 
18:20	78.1	78.1	80.0	66	65.8	0	3	315	0.00	29.942 
18:25	78.5	78.5	80.5	66	66.2	1	2	22	0.00	29.945 
18:30	78.6	78.6	80.6	66	66.3	0	1	22	0.00	29.943 
18:35	78.8	78.8	80.9	66	66.5	0	1	22	0.00	29.941 
18:40	79.0	79.0	81.1	66	66.6	0	1	22	0.00	29.940 
18:45	79.6	79.6	81.9	66	67.2	0	1	22	0.00	29.938 
18:50	79.9	79.9	82.3	66	67.5	0	1	22	0.00	29.935 
18:55	80.1	80.1	82.5	65	67.2	0	1	22	0.00	29.933 
19:00	80.1	80.1	82.5	65	67.2	0	1	22	0.00	29.934 
19:05	80.3	80.3	82.8	65	67.4	0	1	22	0.00	29.931 
19:10	80.3	80.3	82.9	66	67.9	0	2	22	0.00	29.931 
19:15	80.7	80.7	83.5	66	68.3	1	4	0	0.00	29.929 
19:20	80.7	80.7	83.5	66	68.3	1	4	248	0.00	29.930 
19:25	80.7	80.7	83.5	66	68.3	1	4	248	0.00	29.934 
19:30	80.7	80.7	83.7	67	68.7	1	4	270	0.00	29.931 
19:35	80.5	80.5	83.3	67	68.5	1	3	248	0.00	29.932 
19:40	80.1	80.1	82.9	68	68.6	1	3	248	0.00	29.933 
19:45	79.9	79.9	82.7	69	68.8	2	3	292	0.00	29.938 
19:50	79.8	79.8	82.5	69	68.7	1	4	270	0.00	29.936 
19:55	79.6	79.6	82.2	69	68.5	1	3	292	0.00	29.938 
20:00	79.6	79.6	82.3	70	68.9	1	3	270	0.00	29.937 
20:05	79.4	79.4	82.0	70	68.7	1	3	248	0.00	29.931 
20:10	79.2	79.2	81.7	70	68.5	1	3	248	0.00	29.928 
20:15	79.2	79.2	81.7	70	68.5	1	2	248	0.00	29.930 
20:20	79.2	79.2	81.7	70	68.5	0	1	248	0.00	29.929 
20:25	79.0	79.0	81.4	70	68.4	1	3	248	0.00	29.928 
20:30	78.8	78.8	81.1	70	68.2	0	2	248	0.00	29.930 
20:35	78.8	78.8	81.1	70	68.2	1	3	248	0.00	29.937 
20:40	78.6	78.6	80.8	69	67.6	1	4	270	0.00	29.933 
20:45	78.5	78.5	80.7	70	67.9	1	3	270	0.00	29.931 
20:50	78.1	78.1	80.1	69	67.1	1	3	248	0.00	29.934 
20:55	77.9	77.9	79.9	69	66.9	1	2	248	0.00	29.935 
21:00	77.7	77.7	79.6	68	66.3	2	4	248	0.00	29.934 
21:05	77.7	77.7	79.6	68	66.3	1	3	248	0.00	29.931 
21:10	77.6	77.6	79.5	68	66.2	1	3	248	0.00	29.936 
21:15	77.4	77.4	79.2	67	65.6	1	3	248	0.00	29.943 
21:20	77.2	77.2	79.0	66	64.9	1	3	248	0.00	29.941 
21:25	77.0	77.0	78.8	66	64.8	1	3	248	0.00	29.946 
21:30	76.8	76.8	78.6	67	65.0	0	1	248	0.00	29.947 
21:35	76.7	76.7	78.5	67	64.9	1	4	248	0.00	29.946 
21:40	76.5	76.5	78.3	67	64.7	2	5	248	0.00	29.947 
21:45	76.3	76.3	78.1	67	64.5	2	4	270	0.00	29.951 
21:50	76.1	76.1	77.9	67	64.3	2	5	270	0.00	29.950 
21:55	75.8	75.8	77.6	68	64.5	1	3	270	0.00	29.949 
22:00	75.6	75.6	77.4	68	64.3	2	4	248	0.00	29.950 
22:05	75.4	75.4	77.2	68	64.1	1	3	270	0.00	29.952 
22:10	75.3	75.3	77.0	69	64.4	1	4	225	0.00	29.953 
22:15	75.1	75.1	76.9	69	64.2	1	3	270	0.00	29.952 
22:20	74.9	74.9	74.9	69	64.0	1	3	270	0.00	29.950 
22:25	74.7	74.7	74.7	70	64.2	1	4	270	0.00	29.947 
22:30	74.6	74.6	74.6	71	64.6	1	3	292	0.00	29.946 
22:35	74.4	74.4	74.4	71	64.4	1	2	270	0.00	29.950 
22:40	74.2	74.2	74.2	72	64.6	1	3	292	0.00	29.949 
22:45	74.0	74.0	74.0	72	64.4	1	2	292	0.00	29.948 
22:50	74.0	74.0	74.0	72	64.4	1	3	270	0.00	29.951 
22:55	73.9	73.9	73.9	72	64.3	0	1	270	0.00	29.948 
23:00	73.9	73.9	73.9	72	64.3	1	3	248	0.00	29.948 
23:05	73.9	73.9	73.9	72	64.3	0	2	248	0.00	29.945 
23:10	73.9	73.9	73.9	72	64.3	0	2	248	0.00	29.945 
23:15	73.7	73.7	73.7	72	64.1	0	1	248	0.00	29.946 
23:20	73.7	73.7	73.7	72	64.1	0	1	248	0.00	29.946 
23:25	73.5	73.5	73.5	72	63.9	0	1	248	0.00	29.947 
23:30	73.5	73.5	73.5	73	64.3	0	1	248	0.00	29.950 
23:35	73.5	73.5	73.5	73	64.3	0	2	248	0.00	29.955 
23:40	73.5	73.5	73.5	73	64.3	0	1	248	0.00	29.957 
23:45	73.3	73.3	73.3	73	64.1	0	1	248	0.00	29.962 
23:50	73.3	73.3	73.3	73	64.1	0	1	248	0.00	29.962 
23:55	73.2	73.2	73.2	73	64.0	0	1	248	0.00	29.962 

CoCoRaHS
IN-AL-39
A2 Web Hosting
Creative Commons License
GoDaddy
Look for:

loaded 2017-10-16 20:20:06 • last modified 2010-11-18 10:43:29
Privacy PolicyDisclaimer
• wx.awcolley.com is powered by PmWiki v.2002016 •
• all content (unless otherwise noted) © 2017 A W Colley